Time;durP1;ratioP1;P1;durP2;ratioP2;P2;SDS_P1;SDS_P2;PMS_P1;PMS_P2;Temp;Humidity;BMP_temperature;BMP_pressure;BME280_temperature;BME280_humidity;BME280_pressure;Samples;Min_cycle;Max_cycle;Signal;HPM_P1;HPM_P2
2022/05/12 00:00:57;;;;;;;;;3.33;3.33;;;;;20.43;50.04;100912.69;5093079;27;45489;-64
2022/05/12 00:03:24;;;;;;;;;3.00;3.00;;;;;20.43;50.00;100923.38;5095064;27;46980;-64
2022/05/12 00:05:49;;;;;;;;;3.00;2.00;;;;;20.29;50.39;100927.03;5094894;27;45483;-64
2022/05/12 00:08:15;;;;;;;;;2.25;2.25;;;;;20.21;50.37;100918.72;5086174;27;46499;-64
2022/05/12 00:10:42;;;;;;;;;2.25;1.75;;;;;20.16;50.92;100921.72;5074130;28;45441;-66
2022/05/12 00:13:09;;;;;;;;;3.67;3.67;;;;;20.16;50.83;100918.19;5073052;28;45517;-61
2022/05/12 00:15:36;;;;;;;;;4.67;3.33;;;;;20.14;50.74;100925.44;5074336;27;45599;-62
2022/05/12 00:18:04;;;;;;;;;4.00;3.00;;;;;20.07;51.06;100919.69;5074039;27;45952;-64
2022/05/12 00:20:32;;;;;;;;;2.00;2.00;;;;;20.05;51.42;100925.13;5073860;27;45492;-65
2022/05/12 00:23:19;;;;;;;;;4.67;3.67;;;;;20.03;51.13;100928.88;5081514;27;45572;-62
2022/05/12 00:25:47;;;;;;;;;3.33;3.00;;;;;19.99;51.50;100941.59;5094593;27;45515;-64
2022/05/12 00:28:14;;;;;;;;;2.00;2.00;;;;;19.92;51.57;100940.28;5092712;27;47749;-66
2022/05/12 00:30:41;;;;;;;;;2.75;2.75;;;;;19.82;51.54;100942.72;5086439;27;45525;-63
2022/05/12 00:33:07;;;;;;;;;2.00;2.00;;;;;19.75;52.19;100932.59;5074111;28;45553;-64
2022/05/12 00:35:33;;;;;;;;;3.33;2.67;;;;;19.84;52.05;100945.31;5072576;27;45512;-65
2022/05/12 00:37:58;;;;;;;;;3.00;3.00;;;;;19.80;51.69;100950.00;5073618;28;45428;-67
2022/05/12 00:40:24;;;;;;;;;3.33;3.00;;;;;19.75;51.54;100938.78;5073644;28;45502;-65
2022/05/12 00:43:03;;;;;;;;;3.67;2.67;;;;;19.82;51.67;100945.41;5073968;28;45429;-64
2022/05/12 00:45:31;;;;;;;;;2.33;2.33;;;;;19.83;51.52;100954.28;5081629;27;45677;-65
2022/05/12 00:47:56;;;;;;;;;2.33;1.67;;;;;19.88;51.29;100952.16;5093444;27;45550;-62
2022/05/12 00:50:29;;;;;;;;;3.67;3.67;;;;;19.84;51.02;100955.97;5093831;27;45425;-64
2022/05/12 00:52:56;;;;;;;;;4.00;4.00;;;;;19.78;51.47;100957.25;5092305;27;45438;-66
2022/05/12 00:55:31;;;;;;;;;4.00;3.00;;;;;19.73;51.04;100956.72;5094221;27;45589;-61
2022/05/12 00:57:59;;;;;;;;;4.67;4.00;;;;;19.72;51.45;100968.38;5087626;27;45481;-64
2022/05/12 01:00:26;;;;;;;;;3.00;2.33;;;;;19.68;51.61;100966.00;5073398;27;45599;-66
2022/05/12 01:02:56;;;;;;;;;3.00;3.00;;;;;19.64;51.37;100973.34;5072449;28;45504;-63
2022/05/12 01:05:24;;;;;;;;;6.00;5.00;;;;;19.43;51.94;100965.78;5073514;28;45507;-64
2022/05/12 01:07:51;;;;;;;;;5.67;4.00;;;;;19.42;51.11;100974.78;5073239;27;45935;-66
2022/05/12 01:10:18;;;;;;;;;3.67;3.67;;;;;19.38;51.72;100965.25;5072058;28;45458;-66
2022/05/12 01:12:48;;;;;;;;;3.67;3.67;;;;;19.43;52.11;100971.13;5074429;27;45449;-63
2022/05/12 01:15:14;;;;;;;;;5.33;2.33;;;;;19.54;51.34;100988.25;5072150;28;45451;-64
2022/05/12 01:17:40;;;;;;;;;4.00;4.00;;;;;19.41;51.37;100969.53;5073212;27;45506;-65
2022/05/12 01:20:06;;;;;;;;;3.00;3.00;;;;;19.35;51.61;100984.13;5074028;27;45513;-66
2022/05/12 01:22:50;;;;;;;;;3.67;2.67;;;;;19.33;51.36;100980.69;5093578;27;46102;-63
2022/05/12 01:25:21;;;;;;;;;3.33;3.33;;;;;19.28;51.66;100977.47;5093720;27;45401;-65
2022/05/12 01:27:46;;;;;;;;;2.67;2.67;;;;;19.33;51.20;100977.19;5093298;27;45442;-62
2022/05/12 01:30:15;;;;;;;;;2.33;2.00;;;;;19.36;51.38;100987.63;5093514;27;45579;-63
2022/05/12 01:32:43;;;;;;;;;5.33;4.00;;;;;19.30;51.48;100988.91;5093738;27;45519;-65
2022/05/12 01:35:09;;;;;;;;;3.33;3.33;;;;;19.24;52.29;100991.13;5089897;27;45566;-63
2022/05/12 01:37:40;;;;;;;;;4.00;4.00;;;;;19.16;52.04;100991.63;5072973;27;45437;-65
2022/05/12 01:40:06;;;;;;;;;3.00;3.00;;;;;19.18;51.98;100993.25;5073065;28;45438;-62
2022/05/12 01:42:31;;;;;;;;;2.33;2.33;;;;;19.25;52.25;100995.50;5073696;27;45569;-64
2022/05/12 01:44:56;;;;;;;;;4.00;2.00;;;;;19.20;51.85;100991.31;5093499;27;45567;-64
2022/05/12 01:47:22;;;;;;;;;3.67;3.67;;;;;19.19;52.43;100996.75;5093881;27;45527;-61
2022/05/12 01:49:48;;;;;;;;;3.00;3.00;;;;;19.15;52.70;101001.41;5076429;28;45399;-61
2022/05/12 01:52:14;;;;;;;;;4.00;4.00;;;;;19.12;52.36;100993.63;5076573;28;45572;-62
2022/05/12 01:54:39;;;;;;;;;5.67;4.67;;;;;19.17;52.27;101004.00;5076435;28;45520;-65
2022/05/12 01:57:05;;;;;;;;;4.67;3.00;;;;;19.24;52.27;101007.97;5076385;28;46082;-63
2022/05/12 01:59:31;;;;;;;;;3.33;3.33;;;;;19.30;52.05;101014.72;5076302;27;45764;-62
2022/05/12 02:01:56;;;;;;;;;3.67;3.67;;;;;19.28;52.17;101014.81;5077340;27;45529;-63
2022/05/12 02:04:22;;;;;;;;;4.67;4.00;;;;;19.23;51.60;101011.59;5076294;28;45617;-66
2022/05/12 02:06:47;;;;;;;;;5.67;5.67;;;;;19.22;51.94;101027.69;5075913;28;45514;-63
2022/05/12 02:09:13;;;;;;;;;4.00;4.00;;;;;19.24;51.61;101031.13;5076297;28;45584;-61
2022/05/12 02:11:39;;;;;;;;;2.00;2.00;;;;;19.13;51.60;101031.81;5077637;27;45512;-66
2022/05/12 02:14:05;;;;;;;;;4.00;4.00;;;;;19.08;51.21;101029.44;5076221;28;45453;-64
2022/05/12 02:16:33;;;;;;;;;1.67;1.67;;;;;19.02;51.39;101042.28;5074536;28;46021;-64
2022/05/12 02:18:59;;;;;;;;;2.33;1.67;;;;;18.89;51.92;101034.25;5076130;27;45448;-64
2022/05/12 02:21:26;;;;;;;;;3.00;3.00;;;;;18.90;51.79;101036.78;5076069;27;45458;-63
2022/05/12 02:23:52;;;;;;;;;5.00;5.00;;;;;18.91;51.17;101043.84;5076215;28;45461;-65
2022/05/12 02:26:18;;;;;;;;;6.33;5.67;;;;;18.88;51.23;101052.03;5091571;27;47371;-64
2022/05/12 02:28:43;;;;;;;;;3.33;2.67;;;;;18.84;51.30;101058.50;5096336;27;45474;-64
2022/05/12 02:31:08;;;;;;;;;4.67;2.33;;;;;18.79;50.93;101059.75;5096129;27;45472;-64
2022/05/12 02:33:34;;;;;;;;;3.67;2.67;;;;;18.71;50.68;101061.03;5095902;27;45462;-62
2022/05/12 02:36:02;;;;;;;;;6.00;4.00;;;;;18.76;50.36;101066.13;5094054;27;46309;-62
2022/05/12 02:38:28;;;;;;;;;2.67;2.67;;;;;18.83;49.80;101064.78;5084144;27;45575;-65
2022/05/12 02:40:54;;;;;;;;;3.00;3.00;;;;;18.84;49.11;101065.66;5075675;27;45517;-65
2022/05/12 02:43:25;;;;;;;;;2.33;1.67;;;;;18.88;47.31;101068.00;5075471;27;45421;-63
2022/05/12 02:45:54;;;;;;;;;2.67;1.67;;;;;18.87;48.06;101068.13;5075510;27;45542;-62
2022/05/12 02:48:22;;;;;;;;;2.00;0.67;;;;;18.82;47.31;101059.56;5075187;28;45527;-64
2022/05/12 02:50:48;;;;;;;;;1.67;1.67;;;;;18.76;47.65;101074.13;5075362;27;45552;-63
2022/05/12 02:53:13;;;;;;;;;1.67;1.33;;;;;18.75;47.13;101075.06;5076607;27;45487;-62
2022/05/12 02:55:39;;;;;;;;;2.00;2.00;;;;;18.73;47.46;101069.81;5076380;27;46108;-65
2022/05/12 02:58:05;;;;;;;;;0.67;0.67;;;;;18.73;47.62;101068.97;5074677;28;45404;-63
2022/05/12 03:00:33;;;;;;;;;1.67;1.67;;;;;18.74;48.29;101074.22;5075815;27;45660;-63
2022/05/12 03:02:59;;;;;;;;;1.33;1.00;;;;;18.83;47.57;101071.91;5085156;27;45496;-63
2022/05/12 03:05:25;;;;;;;;;2.00;2.00;;;;;18.83;47.60;101086.09;5095738;27;45761;-65
2022/05/12 03:07:51;;;;;;;;;3.33;2.33;;;;;18.85;47.85;101088.69;5095323;27;45485;-66
2022/05/12 03:10:17;;;;;;;;;3.00;3.00;;;;;18.81;48.15;101085.34;5095807;27;45470;-64
2022/05/12 03:12:42;;;;;;;;;2.33;2.33;;;;;18.81;48.33;101088.03;5095572;27;45479;-65
2022/05/12 03:15:08;;;;;;;;;4.67;3.00;;;;;18.77;48.57;101087.34;5094973;27;45561;-65
2022/05/12 03:17:35;;;;;;;;;1.67;1.67;;;;;18.80;48.92;101093.44;5086752;27;45459;-64
2022/05/12 03:20:01;;;;;;;;;2.33;2.33;;;;;18.77;48.57;101097.13;5074556;28;45465;-61
2022/05/12 03:22:27;;;;;;;;;2.33;1.67;;;;;18.74;48.96;101095.53;5074321;27;45585;-64
2022/05/12 03:24:52;;;;;;;;;2.33;1.67;;;;;18.77;49.25;101095.31;5074355;27;46154;-65
2022/05/12 03:27:18;;;;;;;;;3.00;2.00;;;;;18.77;48.96;101095.31;5076621;27;45591;-66
2022/05/12 03:29:43;;;;;;;;;3.67;2.67;;;;;18.79;48.88;101097.06;5094797;27;45457;-64
2022/05/12 03:32:10;;;;;;;;;3.00;3.00;;;;;18.72;48.38;101092.06;5093345;27;45495;-64
2022/05/12 03:34:38;;;;;;;;;2.33;1.00;;;;;18.69;47.57;101092.25;5093124;27;45437;-64
2022/05/12 03:37:04;;;;;;;;;1.67;1.67;;;;;18.66;47.70;101095.09;5095021;27;46231;-62
2022/05/12 03:39:30;;;;;;;;;2.33;2.33;;;;;18.58;48.27;101101.84;5095424;27;45469;-62
2022/05/12 03:41:58;;;;;;;;;1.33;0.00;;;;;18.47;48.57;101103.38;5095314;27;45619;-63
2022/05/12 03:47:07;;;;;;;;;3.00;3.00;;;;;18.39;48.48;101099.44;5095097;27;45559;-64
2022/05/12 03:49:32;;;;;;;;;2.00;2.00;;;;;18.36;48.89;101095.16;5093271;27;45528;-64
2022/05/12 03:51:58;;;;;;;;;2.00;2.00;;;;;18.41;48.59;101100.22;5094868;27;45479;-65
2022/05/12 03:54:23;;;;;;;;;1.67;1.67;;;;;18.44;48.20;101094.72;5094697;27;45510;-65
2022/05/12 03:56:48;;;;;;;;;1.33;1.33;;;;;18.48;48.30;101097.09;5094846;27;45424;-63
2022/05/12 03:59:14;;;;;;;;;1.33;1.33;;;;;18.55;48.09;101101.09;5095017;27;45460;-63
2022/05/12 04:01:39;;;;;;;;;2.33;2.33;;;;;18.54;47.99;101096.72;5094738;27;45442;-62
2022/05/12 04:04:05;;;;;;;;;1.67;1.67;;;;;18.44;48.10;101100.88;5091446;27;45484;-65
2022/05/12 04:06:30;;;;;;;;;2.67;2.67;;;;;18.33;48.53;101098.00;5094717;27;45398;-64
2022/05/12 04:08:56;;;;;;;;;2.00;2.00;;;;;18.36;48.38;101102.31;5094368;27;45430;-63
2022/05/12 04:11:21;;;;;;;;;0.67;0.67;;;;;18.33;48.76;101112.19;5094528;27;45503;-63
2022/05/12 04:13:47;;;;;;;;;2.00;1.33;;;;;18.26;49.00;101100.16;5094560;27;45903;-66
2022/05/12 04:16:12;;;;;;;;;2.33;2.33;;;;;18.23;49.44;101111.00;5094367;27;45499;-65
2022/05/12 04:18:38;;;;;;;;;2.00;2.00;;;;;18.22;49.24;101111.13;5085843;27;45448;-64
2022/05/12 04:21:03;;;;;;;;;1.00;1.00;;;;;18.15;49.43;101115.94;5094650;27;45579;-64
2022/05/12 04:23:28;;;;;;;;;3.67;2.33;;;;;18.25;49.06;101119.78;5094190;27;46294;-65
2022/05/12 04:25:54;;;;;;;;;4.67;2.67;;;;;18.31;49.24;101119.41;5094357;27;45445;-64
2022/05/12 04:28:20;;;;;;;;;4.00;3.00;;;;;18.28;49.11;101126.72;5094545;27;45605;-65
2022/05/12 04:30:45;;;;;;;;;4.00;2.00;;;;;18.31;49.39;101127.38;5079130;27;45553;-67
2022/05/12 04:35:55;;;;;;;;;2.67;2.67;;;;;18.28;49.17;101130.22;5073740;28;45610;-63
2022/05/12 04:38:20;;;;;;;;;3.00;3.00;;;;;18.19;49.36;101128.13;5074003;27;45561;-62
2022/05/12 04:40:45;;;;;;;;;1.67;1.67;;;;;18.21;49.10;101128.88;5073301;27;47649;-66
2022/05/12 04:43:11;;;;;;;;;1.67;1.67;;;;;18.15;49.50;101129.25;5073717;28;45421;-62
2022/05/12 04:45:37;;;;;;;;;2.67;2.67;;;;;18.21;49.78;101136.00;5088879;27;45525;-62
2022/05/12 04:48:04;;;;;;;;;4.67;2.67;;;;;18.26;49.33;101132.13;5093900;27;45435;-66
2022/05/12 04:50:40;;;;;;;;;3.67;3.00;;;;;18.17;49.81;101132.69;5092491;27;45478;-64
2022/05/12 04:53:05;;;;;;;;;4.00;3.67;;;;;18.16;49.56;101130.97;5092579;27;46245;-66
2022/05/12 04:55:33;;;;;;;;;5.00;4.00;;;;;18.22;49.79;101143.06;5093753;27;45491;-65
2022/05/12 04:57:59;;;;;;;;;4.00;4.00;;;;;18.21;49.57;101144.00;5090700;27;45553;-65
2022/05/12 05:00:29;;;;;;;;;3.67;2.67;;;;;18.17;50.29;101142.47;5093820;27;45498;-64
2022/05/12 05:02:55;;;;;;;;;2.67;2.67;;;;;18.14;50.21;101147.97;5091200;27;45509;-65
2022/05/12 05:05:21;;;;;;;;;2.67;2.67;;;;;18.09;50.32;101142.91;5093153;27;45520;-65
2022/05/12 05:07:46;;;;;;;;;3.33;2.00;;;;;18.07;50.68;101142.13;5081964;27;45476;-66
2022/05/12 05:10:12;;;;;;;;;2.67;2.67;;;;;18.07;50.63;101147.47;5076044;27;45543;-63
2022/05/12 05:12:39;;;;;;;;;4.33;2.67;;;;;18.08;50.41;101143.84;5082142;27;46531;-63
2022/05/12 05:15:05;;;;;;;;;4.33;2.67;;;;;18.09;50.38;101149.09;5093698;27;45513;-62
2022/05/12 05:17:31;;;;;;;;;2.67;2.67;;;;;18.12;50.40;101158.72;5079778;27;45566;-64
2022/05/12 05:19:56;;;;;;;;;4.33;3.00;;;;;18.09;50.09;101153.56;5073142;27;45662;-64
2022/05/12 05:22:22;;;;;;;;;5.33;5.00;;;;;18.02;50.67;101162.84;5075951;27;45484;-67
2022/05/12 05:24:47;;;;;;;;;2.00;2.00;;;;;17.99;50.50;101171.84;5076771;27;45461;-67
2022/05/12 05:27:12;;;;;;;;;7.00;3.67;;;;;17.96;50.54;101172.03;5076889;28;45434;-65
2022/05/12 05:29:42;;;;;;;;;2.67;2.67;;;;;17.99;50.46;101171.00;5090637;27;45588;-65
2022/05/12 05:32:11;;;;;;;;;2.00;1.67;;;;;17.94;50.55;101171.25;5096857;27;45494;-67
2022/05/12 05:34:37;;;;;;;;;4.00;3.00;;;;;18.02;50.76;101178.81;5096784;27;45505;-68
2022/05/12 05:37:02;;;;;;;;;2.67;2.67;;;;;17.99;50.68;101192.28;5097120;27;45473;-67
2022/05/12 05:39:28;;;;;;;;;2.33;1.67;;;;;17.90;50.89;101204.34;5096974;27;45439;-65
2022/05/12 05:42:03;;;;;;;;;4.00;3.00;;;;;17.83;50.88;101197.63;5085930;27;46138;-64
2022/05/12 05:44:32;;;;;;;;;2.67;1.67;;;;;17.94;51.07;101199.69;5076645;27;45457;-68
2022/05/12 05:47:00;;;;;;;;;3.00;3.00;;;;;17.91;50.68;101195.38;5084273;27;45644;-67
2022/05/12 05:49:27;;;;;;;;;2.33;2.33;;;;;17.90;50.83;101204.34;5096908;27;45523;-67
2022/05/12 05:54:36;;;;;;;;;3.00;3.00;;;;;17.83;50.99;101208.28;5095541;27;45500;-63
2022/05/12 05:57:03;;;;;;;;;3.33;2.67;;;;;17.80;51.05;101209.28;5091523;27;45515;-65
2022/05/12 05:59:28;;;;;;;;;5.00;5.00;;;;;17.82;51.22;101220.72;5083444;27;45410;-65
2022/05/12 06:01:54;;;;;;;;;5.00;4.00;;;;;17.89;50.69;101218.56;5095833;27;45896;-64
2022/05/12 06:04:19;;;;;;;;;6.00;3.67;;;;;17.91;50.68;101221.16;5094638;27;45479;-68
2022/05/12 06:06:45;;;;;;;;;5.00;3.00;;;;;17.95;50.62;101242.19;5096639;27;45547;-65
2022/05/12 06:09:12;;;;;;;;;4.33;4.33;;;;;17.93;50.81;101240.56;5088999;27;45633;-63
2022/05/12 06:11:38;;;;;;;;;3.33;2.67;;;;;17.95;50.47;101246.66;5075919;28;46073;-65
2022/05/12 06:14:04;;;;;;;;;3.00;3.00;;;;;17.93;50.55;101256.53;5075615;28;45474;-66
2022/05/12 06:16:31;;;;;;;;;4.33;4.33;;;;;17.93;50.01;101246.72;5084709;27;45488;-66
2022/05/12 06:18:56;;;;;;;;;6.67;5.67;;;;;17.97;50.17;101256.25;5096456;27;45476;-65
2022/05/12 06:21:22;;;;;;;;;4.00;3.00;;;;;18.03;50.10;101253.25;5088819;27;45534;-67
2022/05/12 06:23:47;;;;;;;;;6.33;4.67;;;;;17.99;49.69;101250.84;5075372;28;45437;-65
2022/05/12 06:26:15;;;;;;;;;2.33;2.33;;;;;18.06;49.76;101257.56;5089037;27;45942;-67
2022/05/12 06:28:45;;;;;;;;;4.33;4.33;;;;;18.14;49.68;101257.13;5096368;27;45449;-64
2022/05/12 06:31:15;;;;;;;;;5.00;5.00;;;;;18.10;49.76;101253.75;5095013;27;46087;-67
2022/05/12 06:33:41;;;;;;;;;4.00;3.33;;;;;18.14;49.81;101259.78;5095452;27;45435;-62
2022/05/12 06:36:07;;;;;;;;;6.00;4.33;;;;;18.13;49.40;101260.72;5095335;27;45577;-64
2022/05/12 06:38:34;;;;;;;;;4.33;4.33;;;;;18.20;49.64;101262.09;5095407;27;45550;-66
2022/05/12 06:41:00;;;;;;;;;3.00;3.00;;;;;18.21;48.98;101262.00;5095124;27;46883;-64
2022/05/12 06:43:26;;;;;;;;;3.67;3.00;;;;;18.26;49.25;101267.94;5095292;27;45586;-65
2022/05/12 06:45:52;;;;;;;;;2.67;2.67;;;;;18.37;48.94;101271.78;5095414;27;45523;-67
2022/05/12 06:48:18;;;;;;;;;3.33;3.33;;;;;18.39;48.54;101267.25;5094718;27;45577;-66
2022/05/12 06:50:44;;;;;;;;;7.00;4.33;;;;;18.36;49.24;101270.09;5094743;27;46046;-64
2022/05/12 06:53:09;;;;;;;;;3.33;3.33;;;;;18.45;48.69;101270.38;5094998;27;45582;-68
2022/05/12 06:55:34;;;;;;;;;4.67;4.67;;;;;18.47;48.17;101273.84;5095160;27;45497;-65
2022/05/12 06:58:00;;;;;;;;;4.33;2.67;;;;;18.50;48.20;101268.31;5094855;27;45597;-63
2022/05/12 07:00:25;;;;;;;;;3.33;3.33;;;;;18.56;47.72;101267.09;5094480;27;45869;-63
2022/05/12 07:02:52;;;;;;;;;6.33;4.33;;;;;18.52;47.75;101265.59;5094850;27;45484;-64
2022/05/12 07:05:21;;;;;;;;;5.00;5.00;;;;;18.58;47.17;101269.69;5094982;27;45436;-66
2022/05/12 07:07:47;;;;;;;;;4.00;4.00;;;;;18.66;46.88;101268.28;5094612;27;45634;-65
2022/05/12 07:10:14;;;;;;;;;4.67;3.33;;;;;18.65;47.19;101268.41;5094508;27;45587;-63
2022/05/12 07:12:41;;;;;;;;;4.67;4.00;;;;;18.65;47.00;101269.25;5094737;27;45488;-67
2022/05/12 07:15:07;;;;;;;;;3.33;3.33;;;;;18.69;46.70;101269.91;5094818;27;45470;-66
2022/05/12 07:17:37;;;;;;;;;3.00;3.00;;;;;18.74;46.42;101262.53;5094872;27;45507;-65
2022/05/12 07:28:17;;;;;;;;;3.33;2.67;;;;;18.74;45.53;101268.72;5094460;27;45521;-64
2022/05/12 07:31:00;;;;;;;;;3.67;2.33;;;;;18.69;45.41;101259.25;5094002;27;54178;-65
2022/05/12 07:33:26;;;;;;;;;4.33;3.33;;;;;18.75;45.64;101265.13;5094475;27;45585;-66
2022/05/12 07:35:52;;;;;;;;;5.00;3.67;;;;;18.75;45.46;101265.13;5094283;27;45529;-66
2022/05/12 07:38:17;;;;;;;;;3.33;3.33;;;;;18.80;45.41;101267.50;5094005;27;46017;-63
2022/05/12 07:40:43;;;;;;;;;1.00;1.00;;;;;18.79;44.65;101263.13;5094049;27;46169;-65
2022/05/12 07:43:08;;;;;;;;;2.67;1.67;;;;;18.77;44.83;101265.88;5094336;27;45497;-65
2022/05/12 07:45:34;;;;;;;;;2.00;2.00;;;;;18.75;44.10;101264.25;5093887;27;45554;-63
2022/05/12 07:48:00;;;;;;;;;3.33;1.67;;;;;18.80;44.07;101256.84;5094334;27;45528;-64
2022/05/12 07:50:28;;;;;;;;;2.00;1.00;;;;;18.88;44.13;101267.06;5093754;27;45653;-63
2022/05/12 07:52:54;;;;;;;;;2.00;2.00;;;;;18.92;43.85;101266.78;5093809;27;45433;-64
2022/05/12 07:55:19;;;;;;;;;5.00;5.00;;;;;18.94;43.42;101264.03;5094047;27;45595;-67
2022/05/12 07:57:44;;;;;;;;;3.00;1.00;;;;;19.00;44.15;101266.34;5094007;27;45648;-66
2022/05/12 08:00:10;;;;;;;;;5.67;4.33;;;;;18.98;44.05;101273.56;5093651;27;46203;-66
2022/05/12 08:02:36;;;;;;;;;3.00;2.67;;;;;18.95;44.06;101268.41;5093805;27;45569;-67
2022/05/12 08:05:02;;;;;;;;;3.00;3.00;;;;;19.00;43.78;101277.00;5093835;27;45851;-65
2022/05/12 08:07:29;;;;;;;;;3.67;2.67;;;;;19.08;43.83;101281.88;5093116;27;45487;-65
2022/05/12 08:09:57;;;;;;;;;3.00;2.00;;;;;19.13;43.87;101277.97;5085327;27;45519;-65
2022/05/12 08:12:23;;;;;;;;;1.67;1.67;;;;;19.19;43.64;101284.75;5088853;27;45454;-65
2022/05/12 08:14:48;;;;;;;;;2.33;2.33;;;;;19.22;44.11;101279.22;5080965;27;46122;-62
2022/05/12 08:17:14;;;;;;;;;4.00;2.33;;;;;19.21;44.02;101272.19;5073578;28;45585;-67
2022/05/12 08:19:39;;;;;;;;;4.00;3.00;;;;;19.27;43.67;101279.81;5082911;27;46129;-66
2022/05/12 08:22:05;;;;;;;;;1.67;1.67;;;;;19.24;43.37;101293.34;5093904;27;45507;-65
2022/05/12 08:24:30;;;;;;;;;1.25;1.25;;;;;19.22;42.80;101289.91;5093696;27;45764;-62
2022/05/12 08:26:55;;;;;;;;;1.75;1.75;;;;;19.21;42.56;101301.53;5093626;27;45604;-66
2022/05/12 08:29:21;;;;;;;;;2.00;2.00;;;;;19.19;42.49;101295.41;5092201;27;46891;-64
2022/05/12 08:31:46;;;;;;;;;2.67;0.67;;;;;19.23;42.87;101296.94;5093869;27;45514;-64
2022/05/12 08:34:11;;;;;;;;;1.67;1.67;;;;;19.21;42.60;101296.19;5093673;27;45678;-64
2022/05/12 08:36:37;;;;;;;;;3.00;3.00;;;;;19.13;42.50;101285.97;5093517;27;45652;-64
2022/05/12 08:39:03;;;;;;;;;5.00;3.67;;;;;19.11;42.93;101285.22;5093295;27;46130;-66
2022/05/12 08:41:46;;;;;;;;;2.33;1.67;;;;;19.20;42.76;101289.13;5093355;27;45419;-65
2022/05/12 08:44:16;;;;;;;;;1.00;1.00;;;;;19.28;43.28;101284.19;5093541;27;46127;-63
2022/05/12 08:46:47;;;;;;;;;4.33;4.33;;;;;19.33;42.88;101291.91;5093415;27;45430;-62
2022/05/12 08:49:38;;;;;;;;;2.67;2.67;;;;;19.34;42.88;101294.50;5092843;27;45444;-67
2022/05/12 08:52:27;;;;;;;;;2.33;2.33;;;;;19.29;43.40;101280.59;5091749;27;45482;-67
2022/05/12 08:54:58;;;;;;;;;4.33;3.00;;;;;19.38;42.78;101279.16;5093545;27;45560;-66
2022/05/12 08:57:37;;;;;;;;;2.00;2.00;;;;;19.36;43.08;101278.38;5096031;27;45462;-67
2022/05/12 09:00:11;;;;;;;;;1.67;1.67;;;;;19.37;42.79;101288.09;5096760;27;46751;-66
2022/05/12 09:03:09;;;;;;;;;1.33;1.33;;;;;19.42;42.93;101281.53;5096870;27;45471;-66
2022/05/12 09:05:48;;;;;;;;;2.33;1.00;;;;;19.43;42.54;101280.59;5096066;27;45461;-64
2022/05/12 09:08:31;;;;;;;;;8.33;8.33;;;;;19.52;42.05;101284.47;5094011;27;45665;-66
2022/05/12 09:11:19;;;;;;;;;5.67;5.00;;;;;19.60;42.72;101287.53;5094543;27;45517;-65
2022/05/12 09:13:50;;;;;;;;;1.67;1.67;;;;;19.58;42.14;101273.41;5094645;27;45457;-65
2022/05/12 09:16:23;;;;;;;;;1.33;1.33;;;;;19.58;42.85;101273.41;5095494;27;45500;-65
2022/05/12 09:18:49;;;;;;;;;2.33;2.33;;;;;19.62;42.32;101277.63;5096694;27;45425;-66
2022/05/12 09:21:20;;;;;;;;;3.00;3.00;;;;;19.71;42.15;101278.03;5096202;27;47031;-64
2022/05/12 09:23:46;;;;;;;;;2.00;2.00;;;;;19.78;42.38;101271.38;5096566;27;45499;-63
2022/05/12 09:26:31;;;;;;;;;4.00;2.67;;;;;19.83;42.44;101278.13;5096310;27;45515;-63
2022/05/12 09:29:20;;;;;;;;;2.67;2.67;;;;;19.87;42.00;101286.78;5096606;27;45576;-67
2022/05/12 09:31:47;;;;;;;;;4.67;4.00;;;;;19.89;42.01;101282.22;5096417;27;45506;-65
2022/05/12 09:34:19;;;;;;;;;3.33;3.00;;;;;19.92;41.97;101279.34;5096398;27;45536;-66
2022/05/12 09:36:45;;;;;;;;;3.00;3.00;;;;;19.92;42.17;101279.34;5096355;27;45475;-65
2022/05/12 09:39:10;;;;;;;;;2.33;2.33;;;;;20.02;41.73;101283.16;5096249;27;45503;-67
2022/05/12 09:41:44;;;;;;;;;3.00;3.00;;;;;20.11;41.72;101286.19;5096042;27;45413;-64
2022/05/12 09:44:30;;;;;;;;;1.50;1.50;;;;;20.17;41.93;101280.44;5096326;27;45471;-66
2022/05/12 09:47:07;;;;;;;;;2.75;0.75;;;;;20.20;41.59;101273.09;5095068;27;45445;-67
2022/05/12 09:49:39;;;;;;;;;2.67;2.67;;;;;20.23;41.89;101264.00;5094793;27;45633;-66
2022/05/12 09:52:28;;;;;;;;;2.25;2.25;;;;;20.26;41.95;101271.84;5096047;27;46075;-67
2022/05/12 09:55:11;;;;;;;;;2.25;2.25;;;;;20.24;41.60;101271.94;5095951;27;45472;-64
2022/05/12 09:57:45;;;;;;;;;2.00;2.00;;;;;20.19;41.29;101262.50;5096120;27;45476;-65
2022/05/12 10:00:42;;;;;;;;;1.75;1.75;;;;;20.28;41.21;101276.13;5095781;27;45487;-63
2022/05/12 10:09:18;;;;;;;;;2.25;2.25;;;;;20.29;41.96;101266.31;5095495;27;45382;-66
2022/05/12 10:12:02;;;;;;;;;2.33;1.67;;;;;20.28;41.38;101265.44;5096040;27;45650;-66
2022/05/12 10:14:33;;;;;;;;;2.33;2.33;;;;;20.25;41.04;101270.13;5095539;27;45474;-66
2022/05/12 10:17:01;;;;;;;;;3.25;3.25;;;;;20.24;41.59;101268.41;5095657;27;45437;-65
2022/05/12 10:19:29;;;;;;;;;2.33;2.33;;;;;20.21;41.66;101260.59;5095636;27;45464;-67
2022/05/12 10:22:10;;;;;;;;;3.67;2.33;;;;;20.21;41.76;101252.59;5095811;27;45615;-67
2022/05/12 10:24:41;;;;;;;;;3.67;3.67;;;;;20.21;41.78;101256.13;5095454;27;46100;-63
2022/05/12 10:27:17;;;;;;;;;4.50;3.50;;;;;20.25;41.99;101260.28;5094948;27;45521;-64
2022/05/12 10:30:01;;;;;;;;;3.00;3.00;;;;;20.24;41.52;101255.91;5095208;27;45534;-67
2022/05/12 10:32:44;;;;;;;;;3.50;3.50;;;;;20.20;41.61;101250.84;5095292;27;45407;-65
2022/05/12 10:35:22;;;;;;;;;5.00;5.00;;;;;20.26;41.81;101243.31;5093689;27;46926;-66
2022/05/12 10:38:07;;;;;;;;;2.67;2.67;;;;;20.32;41.60;101254.56;5095126;27;45464;-64
2022/05/12 10:40:46;;;;;;;;;4.00;4.00;;;;;20.30;41.82;101257.31;5095158;27;45497;-64
2022/05/12 10:43:30;;;;;;;;;3.50;2.25;;;;;20.27;41.57;101253.03;5093485;27;45437;-65
2022/05/12 10:46:11;;;;;;;;;3.33;3.33;;;;;20.33;41.54;101249.09;5094428;27;45443;-67
2022/05/12 10:48:55;;;;;;;;;7.67;3.67;;;;;20.41;40.65;101246.78;5094652;27;45460;-63
2022/05/12 10:51:45;;;;;;;;;2.50;1.75;;;;;20.43;40.86;101249.34;5093471;27;45573;-65
2022/05/12 10:54:20;;;;;;;;;1.75;1.75;;;;;20.46;40.64;101251.81;5094719;27;45443;-66
2022/05/12 10:57:15;;;;;;;;;2.50;2.50;;;;;20.42;40.77;101243.16;5093148;27;47523;-64
2022/05/12 11:00:03;;;;;;;;;2.75;2.75;;;;;20.55;41.05;101231.66;5094743;27;45516;-67
2022/05/12 11:02:35;;;;;;;;;2.00;2.00;;;;;20.62;40.26;101249.00;5094641;27;45442;-65
2022/05/12 11:05:09;;;;;;;;;3.33;3.33;;;;;20.63;40.70;101238.22;5094615;27;45419;-66
2022/05/12 11:07:42;;;;;;;;;4.67;4.00;;;;;20.69;40.52;101239.63;5094160;27;45612;-65
2022/05/12 11:10:31;;;;;;;;;2.00;2.00;;;;;20.69;39.93;101242.31;5094688;27;45512;-64
2022/05/12 11:13:03;;;;;;;;;4.00;4.00;;;;;20.66;39.64;101235.34;5094432;27;45560;-67
2022/05/12 11:15:55;;;;;;;;;5.25;4.25;;;;;20.72;39.43;101239.41;5094730;27;45523;-65
2022/05/12 11:18:28;;;;;;;;;4.00;3.00;;;;;20.85;39.69;101245.66;5093550;27;46438;-63
2022/05/12 11:21:23;;;;;;;;;3.25;2.00;;;;;20.98;39.37;101247.47;5094042;27;45617;-64
2022/05/12 11:23:58;;;;;;;;;2.50;1.25;;;;;20.95;39.67;101244.06;5092224;27;45522;-66
2022/05/12 11:26:42;;;;;;;;;6.25;4.50;;;;;20.98;39.79;101237.63;5086360;27;45488;-62
2022/05/12 11:32:18;;;;;;;;;4.67;4.00;;;;;21.19;39.66;101237.94;5083162;27;45488;-61
2022/05/12 11:35:01;;;;;;;;;27.33;27.33;;;;;21.26;39.30;101243.75;5080164;27;45464;-65
2022/05/12 11:37:30;;;;;;;;;8.00;8.00;;;;;21.27;39.36;101229.41;5079176;27;45394;-67
2022/05/12 11:39:57;;;;;;;;;11.00;11.00;;;;;21.31;39.32;101239.78;5074230;27;45445;-65
2022/05/12 11:44:23;;;;;;;;;9.67;9.67;;;;;21.33;39.52;101245.00;5089322;27;45828;-63
2022/05/12 11:45:35;;;;;;;;;5.00;5.00;;;;;21.30;39.82;101235.38;5094370;27;45576;-62
2022/05/12 11:48:16;;;;;;;;;12.33;10.67;;;;;21.36;39.39;101234.13;5095969;27;45424;-68
2022/05/12 11:50:57;;;;;;;;;3.00;3.00;;;;;21.39;39.46;101236.59;5093693;27;45524;-66
2022/05/12 11:53:45;;;;;;;;;3.00;3.00;;;;;21.43;39.10;101234.56;5082851;27;45480;-64
2022/05/12 11:56:12;;;;;;;;;10.33;9.00;;;;;21.43;38.68;101238.09;5075597;27;45675;-64
2022/05/12 11:58:45;;;;;;;;;3.25;3.25;;;;;21.41;39.18;101237.31;5075356;27;45447;-67
2022/05/12 12:01:14;;;;;;;;;2.25;2.25;;;;;21.44;38.44;101237.13;5076570;27;45581;-64